Time;durP1;ratioP1;P1;durP2;ratioP2;P2;SDS_P1;SDS_P2;PMS_P1;PMS_P2;Temp;Humidity;BMP_temperature;BMP_pressure;BME280_temperature;BME280_humidity;BME280_pressure;Samples;Min_cycle;Max_cycle;Signal;HPM_P1;HPM_P2
2023/05/29 04:02:43;;;;;;;3.10;2.93;;;10.80;97.30;;;;;;5074680;23;21015;-87
2023/05/29 04:05:08;;;;;;;1.67;1.60;;;10.80;97.30;;;;;;5020498;28;20435;-88
2023/05/29 04:07:36;;;;;;;2.93;2.80;;;10.80;97.30;;;;;;5035510;28;20270;-87
2023/05/29 04:10:03;;;;;;;5.30;2.20;;;10.90;97.30;;;;;;5013697;28;20299;-88
2023/05/29 04:12:28;;;;;;;3.83;2.50;;;10.90;97.30;;;;;;5009062;28;20532;-89
2023/05/29 04:14:54;;;;;;;8.83;4.20;;;10.90;97.30;;;;;;4996096;28;20514;-89
2023/05/29 04:17:19;;;;;;;2.80;1.80;;;11.00;97.30;;;;;;5015701;28;20185;-90
2023/05/29 04:19:45;;;;;;;2.67;2.30;;;11.00;97.30;;;;;;5002401;28;20181;-88
2023/05/29 04:22:11;;;;;;;6.23;3.60;;;11.00;97.30;;;;;;4996447;28;20320;-87
2023/05/29 04:24:36;;;;;;;2.03;1.80;;;11.10;97.30;;;;;;4991475;28;20237;-89
2023/05/29 04:27:02;;;;;;;4.77;2.20;;;11.10;97.30;;;;;;4996421;28;20263;-87
2023/05/29 04:29:28;;;;;;;2.87;2.67;;;11.20;97.30;;;;;;4992641;28;20209;-90
2023/05/29 04:31:55;;;;;;;2.23;1.90;;;11.20;97.30;;;;;;4987926;28;20197;-88
2023/05/29 04:34:21;;;;;;;2.70;1.83;;;11.30;97.30;;;;;;4983988;28;20417;-87
2023/05/29 04:36:47;;;;;;;2.93;2.20;;;11.30;97.30;;;;;;4982154;28;20503;-87
2023/05/29 04:39:13;;;;;;;3.90;1.60;;;11.40;97.30;;;;;;4987963;28;20416;-89
2023/05/29 04:41:40;;;;;;;3.13;2.80;;;11.40;97.30;;;;;;4995762;28;20540;-89
2023/05/29 04:44:06;;;;;;;2.73;1.93;;;11.50;97.30;;;;;;4978971;28;20963;-89
2023/05/29 04:46:34;;;;;;;5.70;3.50;;;11.50;97.30;;;;;;5006283;28;20478;-89
2023/05/29 04:48:59;;;;;;;3.20;2.10;;;11.50;97.30;;;;;;4987248;28;20444;-87
2023/05/29 04:51:25;;;;;;;3.53;1.80;;;11.60;97.30;;;;;;4982522;28;20440;-89
2023/05/29 04:53:54;;;;;;;35.13;3.77;;;11.70;97.30;;;;;;4981578;28;20177;-87
2023/05/29 04:56:20;;;;;;;3.63;3.47;;;11.70;97.30;;;;;;4984370;28;20178;-88
2023/05/29 04:58:45;;;;;;;2.17;1.77;;;11.80;97.30;;;;;;4985354;28;20559;-87
2023/05/29 05:01:14;;;;;;;1.57;1.57;;;11.90;97.30;;;;;;4989844;28;20518;-87
2023/05/29 05:03:43;;;;;;;1.60;1.60;;;11.90;97.30;;;;;;4983124;28;20232;-87
2023/05/29 05:06:09;;;;;;;5.83;3.00;;;12.00;97.30;;;;;;4995582;28;20437;-88
2023/05/29 05:08:35;;;;;;;5.60;3.53;;;12.10;97.30;;;;;;5005737;28;20420;-87
2023/05/29 05:11:01;;;;;;;7.23;2.83;;;12.10;97.30;;;;;;4990830;28;20225;-86
2023/05/29 05:13:27;;;;;;;1.67;1.57;;;12.20;97.30;;;;;;4988463;28;20325;-86
2023/05/29 05:15:53;;;;;;;2.50;2.30;;;12.30;97.30;;;;;;4977960;28;20422;-87
2023/05/29 05:18:19;;;;;;;2.40;2.20;;;12.30;97.30;;;;;;4985753;28;20454;-87
2023/05/29 05:20:45;;;;;;;4.70;3.67;;;12.40;97.30;;;;;;5003604;28;20449;-88
2023/05/29 05:23:11;;;;;;;3.87;3.10;;;12.50;97.30;;;;;;4988893;28;20191;-88
2023/05/29 05:25:38;;;;;;;2.83;2.63;;;12.50;97.30;;;;;;5018738;28;20190;-88
2023/05/29 05:28:04;;;;;;;5.30;3.57;;;12.60;97.30;;;;;;4997583;28;20416;-88
2023/05/29 05:30:29;;;;;;;1.83;1.73;;;12.70;97.30;;;;;;4988060;28;20501;-87
2023/05/29 05:32:55;;;;;;;2.90;2.70;;;12.70;97.30;;;;;;4994180;28;20455;-86
2023/05/29 05:35:24;;;;;;;2.63;2.43;;;12.80;97.30;;;;;;4984170;28;20265;-88
2023/05/29 05:37:50;;;;;;;3.93;3.23;;;12.80;97.30;;;;;;5001011;28;20425;-87
2023/05/29 05:40:16;;;;;;;24.03;3.30;;;12.90;97.30;;;;;;4995230;28;20471;-87
2023/05/29 05:42:41;;;;;;;3.63;2.27;;;13.00;97.30;;;;;;4990463;28;20986;-88
2023/05/29 05:45:08;;;;;;;3.50;3.30;;;13.00;97.30;;;;;;4989772;28;20313;-86
2023/05/29 05:47:34;;;;;;;3.27;2.60;;;13.10;97.30;;;;;;4976885;28;20211;-87
2023/05/29 05:49:59;;;;;;;3.50;2.27;;;13.10;97.30;;;;;;4987318;28;20546;-88
2023/05/29 05:52:25;;;;;;;4.33;2.20;;;13.20;97.30;;;;;;4991129;28;20201;-86
2023/05/29 05:54:51;;;;;;;5.97;2.70;;;13.30;97.30;;;;;;4991260;28;20174;-87
2023/05/29 05:57:17;;;;;;;17.63;3.67;;;13.40;97.30;;;;;;4966113;28;20417;-87
2023/05/29 05:59:42;;;;;;;5.10;2.43;;;13.40;97.30;;;;;;4990492;28;20269;-86
2023/05/29 06:02:08;;;;;;;4.50;3.10;;;13.50;97.30;;;;;;4970025;28;20230;-89
2023/05/29 06:04:33;;;;;;;2.93;2.07;;;13.50;97.30;;;;;;4965750;28;20182;-87
2023/05/29 06:06:59;;;;;;;4.17;3.27;;;13.60;97.30;;;;;;4979424;28;20248;-86
2023/05/29 06:09:25;;;;;;;5.97;3.07;;;13.70;97.30;;;;;;4964102;28;20261;-87
2023/05/29 06:11:51;;;;;;;3.77;2.07;;;13.70;97.30;;;;;;4971450;28;20198;-87
2023/05/29 06:14:16;;;;;;;2.23;2.03;;;13.80;97.30;;;;;;4964052;28;21133;-87
2023/05/29 06:16:42;;;;;;;3.77;2.30;;;13.90;97.30;;;;;;4958264;28;20182;-87
2023/05/29 06:19:08;;;;;;;4.43;3.73;;;14.00;97.30;;;;;;4972933;28;20237;-86
2023/05/29 06:21:34;;;;;;;5.90;2.17;;;14.00;97.30;;;;;;4963649;28;20458;-88
2023/05/29 06:24:00;;;;;;;3.83;2.80;;;14.10;97.30;;;;;;4963953;28;20178;-88
2023/05/29 06:26:26;;;;;;;4.30;3.03;;;14.20;97.30;;;;;;4963849;28;20822;-89
2023/05/29 06:28:52;;;;;;;4.40;3.63;;;14.20;97.30;;;;;;4967946;28;20182;-87
2023/05/29 06:31:17;;;;;;;7.43;2.50;;;14.30;97.30;;;;;;4958960;28;20445;-87
2023/05/29 06:33:43;;;;;;;3.90;2.07;;;14.40;97.30;;;;;;4969278;28;20174;-86
2023/05/29 06:36:09;;;;;;;2.53;2.33;;;14.50;97.30;;;;;;4965875;28;20256;-88
2023/05/29 06:38:35;;;;;;;3.90;3.13;;;14.50;97.30;;;;;;4967722;28;21071;-88
2023/05/29 06:41:00;;;;;;;7.10;1.97;;;14.60;97.30;;;;;;4966109;28;20203;-88
2023/05/29 06:43:26;;;;;;;3.23;2.20;;;14.60;97.30;;;;;;4963312;28;20190;-88
2023/05/29 06:45:52;;;;;;;3.10;2.90;;;14.70;97.30;;;;;;4967275;28;20197;-87
2023/05/29 06:48:17;;;;;;;6.17;1.93;;;14.80;97.30;;;;;;4970333;28;20508;-87
2023/05/29 06:50:43;;;;;;;3.73;2.50;;;14.80;97.30;;;;;;4965294;28;20210;-88
2023/05/29 06:53:08;;;;;;;2.30;2.10;;;14.90;97.30;;;;;;4980429;28;20177;-86
2023/05/29 06:55:34;;;;;;;5.43;1.90;;;15.00;97.30;;;;;;4968706;28;20185;-88
2023/05/29 06:57:59;;;;;;;2.70;2.50;;;15.10;97.30;;;;;;4978868;28;20177;-87
2023/05/29 07:00:25;;;;;;;25.07;4.00;;;15.20;97.30;;;;;;4967207;28;20182;-89
2023/05/29 07:02:51;;;;;;;6.80;3.50;;;15.20;97.30;;;;;;4980311;28;20225;-87
2023/05/29 07:05:16;;;;;;;2.30;2.10;;;15.30;97.30;;;;;;4988906;28;20247;-87
2023/05/29 07:07:42;;;;;;;2.80;1.80;;;15.40;97.00;;;;;;4984163;28;20174;-88
2023/05/29 07:10:10;;;;;;;2.70;1.50;;;15.50;96.40;;;;;;4995394;28;20221;-87
2023/05/29 07:12:36;;;;;;;4.93;2.33;;;15.60;95.40;;;;;;4991204;28;20229;-88
2023/05/29 07:15:02;;;;;;;2.30;1.90;;;15.60;95.30;;;;;;4990676;28;20452;-87
2023/05/29 07:17:28;;;;;;;2.40;2.20;;;15.70;95.30;;;;;;5005365;28;20182;-88
2023/05/29 07:19:54;;;;;;;2.23;2.03;;;15.80;94.60;;;;;;4988253;28;20426;-86
2023/05/29 07:22:21;;;;;;;3.93;1.90;;;15.90;94.20;;;;;;4985527;28;20206;-87
2023/05/29 07:24:52;;;;;;;5.13;3.07;;;16.00;94.20;;;;;;4996919;28;20435;-88
2023/05/29 07:27:17;;;;;;;5.77;3.70;;;16.10;94.10;;;;;;4991873;28;20940;-89
2023/05/29 07:29:43;;;;;;;6.00;2.30;;;16.20;93.40;;;;;;4979367;28;20454;-88
2023/05/29 07:32:09;;;;;;;22.97;2.80;;;16.30;93.10;;;;;;4997653;28;20571;-87
2023/05/29 07:34:35;;;;;;;3.07;2.87;;;16.30;93.00;;;;;;4982901;28;20179;-86
2023/05/29 07:37:06;;;;;;;1.67;1.57;;;16.40;92.50;;;;;;4985921;28;20436;-88
2023/05/29 07:39:32;;;;;;;1.83;1.83;;;16.50;92.00;;;;;;5005875;28;20177;-85
2023/05/29 07:41:59;;;;;;;3.57;2.53;;;16.60;92.00;;;;;;4987803;28;20529;-86
2023/05/29 07:44:25;;;;;;;5.57;3.00;;;16.70;91.30;;;;;;4984189;28;20469;-85
2023/05/29 07:46:50;;;;;;;8.03;1.57;;;16.80;91.20;;;;;;4995094;28;20444;-84
2023/05/29 07:49:16;;;;;;;3.37;2.60;;;16.90;91.30;;;;;;4990139;28;20264;-84
2023/05/29 07:51:41;;;;;;;2.60;2.40;;;17.00;91.20;;;;;;4987750;28;20222;-86
2023/05/29 07:54:07;;;;;;;2.17;1.83;;;17.20;90.70;;;;;;4996511;28;20192;-88
2023/05/29 07:56:33;;;;;;;7.63;2.77;;;17.30;90.40;;;;;;5004158;28;20268;-85
2023/05/29 07:58:59;;;;;;;3.33;2.20;;;17.30;90.40;;;;;;4992167;28;20170;-88
2023/05/29 08:01:25;;;;;;;1.40;1.30;;;17.40;90.00;;;;;;4993956;28;20748;-87
2023/05/29 08:03:51;;;;;;;3.70;1.63;;;17.50;89.80;;;;;;4978182;28;20433;-87
2023/05/29 08:06:17;;;;;;;1.87;1.77;;;17.60;90.40;;;;;;4974016;28;20410;-85
2023/05/29 08:08:43;;;;;;;4.07;2.90;;;17.70;88.10;;;;;;4970334;28;20421;-85
2023/05/29 08:11:09;;;;;;;2.60;2.00;;;17.80;88.30;;;;;;4973751;28;20214;-85
2023/05/29 08:13:34;;;;;;;2.60;2.10;;;17.90;87.40;;;;;;4971344;28;21543;-86
2023/05/29 08:16:00;;;;;;;2.60;2.30;;;18.00;88.10;;;;;;4976402;28;20182;-85
2023/05/29 08:18:26;;;;;;;2.43;2.23;;;18.00;87.10;;;;;;4975870;28;20211;-87
2023/05/29 08:20:52;;;;;;;3.10;1.90;;;18.10;87.50;;;;;;4963501;28;20297;-85
2023/05/29 08:23:18;;;;;;;2.43;2.23;;;18.20;87.20;;;;;;4970897;28;20474;-85
2023/05/29 08:25:44;;;;;;;3.50;1.57;;;18.30;86.80;;;;;;4966329;28;20458;-86
2023/05/29 08:28:09;;;;;;;3.10;2.10;;;18.40;86.50;;;;;;4978788;28;20708;-87
2023/05/29 08:30:35;;;;;;;3.43;2.20;;;18.50;86.50;;;;;;4967233;28;20221;-87
2023/05/29 08:33:00;;;;;;;7.43;2.03;;;18.60;86.20;;;;;;4978102;28;20736;-87
2023/05/29 08:35:26;;;;;;;2.60;1.50;;;18.70;85.20;;;;;;4971627;28;20175;-87
2023/05/29 08:37:51;;;;;;;1.33;1.23;;;18.80;85.10;;;;;;4961695;28;20187;-87
2023/05/29 08:40:17;;;;;;;1.73;1.63;;;18.90;85.90;;;;;;4980267;28;20185;-87
2023/05/29 08:42:47;;;;;;;1.00;1.00;;;19.10;85.80;;;;;;4960420;28;20249;-86
2023/05/29 08:45:15;;;;;;;2.07;1.93;;;19.20;84.70;;;;;;4973437;28;20178;-87
2023/05/29 08:47:41;;;;;;;2.83;1.70;;;19.30;84.50;;;;;;4972915;28;20457;-88
2023/05/29 08:50:07;;;;;;;2.80;2.13;;;19.40;84.20;;;;;;4971183;28;20496;-86
2023/05/29 08:52:35;;;;;;;3.10;1.70;;;19.40;84.80;;;;;;4967253;28;20456;-86
2023/05/29 08:55:07;;;;;;;8.90;3.43;;;19.50;84.50;;;;;;4971530;28;20433;-85
2023/05/29 08:57:39;;;;;;;1.93;1.80;;;19.60;83.50;;;;;;4986668;28;20445;-86
2023/05/29 09:00:15;;;;;;;5.23;1.60;;;19.70;84.30;;;;;;4979814;28;20515;-87
2023/05/29 09:02:46;;;;;;;3.60;2.60;;;19.80;84.10;;;;;;4977836;28;20492;-87
2023/05/29 09:05:17;;;;;;;2.97;1.77;;;19.90;84.30;;;;;;4976289;28;20414;-87
2023/05/29 09:07:56;;;;;;;2.50;2.20;;;20.00;83.40;;;;;;4970430;28;20438;-85
2023/05/29 09:10:22;;;;;;;1.93;1.70;;;20.10;83.80;;;;;;4981368;28;20484;-88
2023/05/29 09:12:51;;;;;;;15.57;1.80;;;20.20;82.20;;;;;;4977503;28;20947;-85
2023/05/29 09:15:18;;;;;;;2.17;1.73;;;20.30;81.30;;;;;;4972596;28;20728;-85
2023/05/29 09:17:54;;;;;;;1.37;1.30;;;20.40;81.80;;;;;;4976061;28;20413;-86
2023/05/29 09:20:23;;;;;;;1.57;1.47;;;20.40;81.30;;;;;;4991687;28;20425;-87
2023/05/29 09:23:00;;;;;;;2.77;1.77;;;20.40;81.50;;;;;;4959161;28;20436;-87
2023/05/29 09:25:28;;;;;;;3.53;1.60;;;20.40;82.10;;;;;;4973465;28;20445;-90
2023/05/29 09:28:02;;;;;;;6.27;2.37;;;20.50;81.50;;;;;;4965774;28;20446;-88
2023/05/29 09:30:33;;;;;;;2.83;1.70;;;20.40;81.30;;;;;;4980856;28;20976;-87
2023/05/29 09:33:00;;;;;;;1.37;1.30;;;20.50;82.30;;;;;;4967427;28;20419;-88
2023/05/29 09:35:32;;;;;;;4.73;2.07;;;20.50;82.30;;;;;;4964426;28;20438;-88
2023/05/29 09:37:57;;;;;;;1.53;1.00;;;20.70;81.00;;;;;;4984168;28;20475;-87
2023/05/29 09:40:23;;;;;;;1.73;1.63;;;20.80;79.20;;;;;;4968923;28;20947;-87
2023/05/29 09:42:48;;;;;;;6.83;2.10;;;20.80;78.80;;;;;;4967327;28;20183;-86
2023/05/29 09:45:17;;;;;;;1.40;1.20;;;20.90;79.10;;;;;;4993356;28;20174;-88
2023/05/29 09:47:43;;;;;;;5.43;1.77;;;20.90;79.00;;;;;;4996560;28;20210;-89
2023/05/29 09:50:20;;;;;;;2.47;2.27;;;20.90;79.70;;;;;;4992758;28;20538;-91
2023/05/29 09:52:46;;;;;;;1.37;1.27;;;21.00;78.90;;;;;;4969286;28;20202;-88
2023/05/29 09:55:14;;;;;;;3.33;1.40;;;21.10;78.60;;;;;;4970082;28;20773;-86
2023/05/29 09:57:41;;;;;;;4.93;2.00;;;21.10;77.80;;;;;;4983342;28;20425;-86
2023/05/29 10:00:12;;;;;;;4.00;2.10;;;21.10;78.50;;;;;;4969973;28;20418;-88
2023/05/29 10:02:39;;;;;;;2.23;1.90;;;21.20;78.40;;;;;;5001358;28;20879;-89
2023/05/29 10:05:07;;;;;;;1.63;1.53;;;21.20;79.20;;;;;;4989385;28;20419;-89
2023/05/29 10:07:36;;;;;;;2.13;1.90;;;21.30;78.50;;;;;;4991101;28;20404;-89
2023/05/29 10:10:07;;;;;;;2.27;1.60;;;21.40;78.10;;;;;;4988700;28;20460;-86
2023/05/29 10:12:36;;;;;;;3.80;3.13;;;21.60;77.80;;;;;;4989514;28;20973;-86
2023/05/29 10:15:05;;;;;;;5.30;3.33;;;21.60;78.40;;;;;;4991859;28;20431;-88
2023/05/29 10:17:34;;;;;;;3.17;1.53;;;21.80;78.10;;;;;;4991887;28;20428;-88
2023/05/29 10:20:04;;;;;;;3.70;2.37;;;21.80;77.40;;;;;;4991940;28;20995;-89
2023/05/29 10:22:31;;;;;;;1.47;1.40;;;21.80;77.40;;;;;;4998781;28;20951;-88
2023/05/29 10:24:58;;;;;;;1.60;1.50;;;21.80;77.60;;;;;;4988261;28;20490;-89
2023/05/29 10:27:24;;;;;;;3.63;2.03;;;21.80;77.70;;;;;;4994872;28;20431;-89
2023/05/29 10:30:15;;;;;;;2.00;1.90;;;21.90;78.60;;;;;;4976562;28;20479;-87
2023/05/29 10:33:06;;;;;;;4.40;2.57;;;22.00;77.60;;;;;;4993448;28;20443;-88
2023/05/29 10:35:54;;;;;;;5.03;2.47;;;22.00;77.40;;;;;;5009656;28;20534;-90
2023/05/29 10:38:21;;;;;;;3.07;1.93;;;22.10;77.20;;;;;;4996401;28;20418;-87
2023/05/29 10:40:46;;;;;;;1.63;1.53;;;22.10;77.40;;;;;;5014032;28;20443;-88
2023/05/29 10:43:34;;;;;;;1.63;1.57;;;22.10;77.40;;;;;;4990253;28;20506;-89
2023/05/29 10:46:01;;;;;;;2.03;1.33;;;22.20;77.00;;;;;;4987692;28;20417;-90
2023/05/29 10:48:29;;;;;;;1.40;1.30;;;22.30;77.00;;;;;;4989615;28;20458;-87
2023/05/29 10:50:56;;;;;;;1.90;1.80;;;22.40;77.40;;;;;;5005330;28;20474;-89
2023/05/29 10:53:31;;;;;;;4.17;2.53;;;22.50;75.80;;;;;;5005649;28;20918;-90
2023/05/29 10:55:59;;;;;;;1.57;1.53;;;22.50;76.20;;;;;;4990442;28;20420;-90
2023/05/29 10:58:25;;;;;;;4.63;2.07;;;22.60;75.20;;;;;;4987978;28;20830;-89
2023/05/29 11:00:54;;;;;;;2.10;1.53;;;22.70;75.30;;;;;;4989518;28;20448;-90
2023/05/29 11:03:30;;;;;;;2.50;1.83;;;22.70;75.20;;;;;;4992659;28;20420;-88
2023/05/29 11:06:13;;;;;;;1.60;1.50;;;22.80;75.90;;;;;;4992513;28;20467;-90
2023/05/29 11:08:47;;;;;;;1.87;1.80;;;22.80;74.90;;;;;;5009916;28;20506;-87
2023/05/29 11:11:28;;;;;;;3.47;2.07;;;22.80;76.10;;;;;;4991873;28;20467;-89
2023/05/29 11:13:56;;;;;;;1.60;1.50;;;22.80;74.80;;;;;;4991648;28;20867;-90
2023/05/29 11:16:25;;;;;;;1.80;1.70;;;22.80;75.50;;;;;;4989537;28;20424;-90
2023/05/29 11:18:52;;;;;;;4.17;1.80;;;22.90;75.50;;;;;;4990500;28;20424;-89
2023/05/29 11:21:34;;;;;;;10.03;1.43;;;23.00;74.40;;;;;;4991326;28;20530;-87
2023/05/29 11:24:07;;;;;;;2.50;2.03;;;23.00;74.20;;;;;;4992535;28;20961;-89
2023/05/29 11:26:36;;;;;;;2.07;1.93;;;22.90;73.10;;;;;;4991953;28;20459;-91
2023/05/29 11:29:06;;;;;;;2.70;2.03;;;22.90;74.40;;;;;;4992226;28;20443;-88
2023/05/29 11:31:34;;;;;;;2.47;2.17;;;22.90;74.20;;;;;;4990646;28;20538;-89
2023/05/29 11:34:02;;;;;;;1.10;1.00;;;23.00;74.00;;;;;;4995227;28;20474;-91
2023/05/29 11:36:28;;;;;;;2.37;1.60;;;23.10;73.50;;;;;;4992688;28;20463;-90
2023/05/29 11:38:53;;;;;;;1.80;1.50;;;23.20;73.60;;;;;;4992830;28;20854;-88
2023/05/29 11:41:19;;;;;;;1.80;1.70;;;23.30;73.30;;;;;;5010502;28;20279;-89
2023/05/29 11:43:56;;;;;;;1.30;1.20;;;23.40;74.10;;;;;;4994068;28;20223;-87
2023/05/29 11:46:22;;;;;;;1.97;1.77;;;23.50;73.10;;;;;;4988385;28;20270;-91
2023/05/29 11:48:48;;;;;;;3.13;2.03;;;23.70;73.30;;;;;;4992043;28;20424;-90
2023/05/29 11:51:14;;;;;;;2.97;1.73;;;23.80;73.10;;;;;;4993081;28;21082;-89
2023/05/29 11:53:43;;;;;;;4.33;1.90;;;23.90;72.70;;;;;;4990906;28;20182;-84
2023/05/29 11:56:12;;;;;;;2.23;2.03;;;24.00;72.70;;;;;;4992534;28;20448;-87
2023/05/29 11:58:41;;;;;;;3.97;2.23;;;23.90;71.40;;;;;;5011217;28;20413;-86
2023/05/29 12:01:10;;;;;;;2.30;1.80;;;23.70;71.30;;;;;;5012771;28;20480;-86
2023/05/29 12:03:43;;;;;;;7.10;1.93;;;23.50;72.10;;;;;;4994839;28;20482;-88
2023/05/29 12:06:10;;;;;;;2.40;1.57;;;23.20;72.90;;;;;;4994200;28;20416;-86
2023/05/29 12:08:36;;;;;;;3.20;2.13;;;23.00;71.90;;;;;;4999438;28;20482;-87
2023/05/29 12:11:02;;;;;;;2.70;1.50;;;22.90;72.50;;;;;;4997657;28;20507;-87
2023/05/29 12:13:28;;;;;;;2.50;1.63;;;23.00;73.80;;;;;;4997935;28;20478;-86
2023/05/29 12:15:58;;;;;;;5.83;2.30;;;23.20;73.40;;;;;;4995765;28;20173;-89
2023/05/29 12:21:04;;;;;;;1.57;1.50;;;23.70;74.70;;;;;;5029963;28;20522;-65
2023/05/29 12:23:29;;;;;;;3.00;1.50;;;24.00;74.40;;;;;;5008465;28;20434;-66
2023/05/29 12:25:56;;;;;;;2.67;1.73;;;24.30;73.60;;;;;;5009326;28;20435;-66
2023/05/29 12:28:22;;;;;;;1.60;1.50;;;24.60;71.90;;;;;;5031605;28;20180;-66
2023/05/29 12:30:49;;;;;;;1.57;1.47;;;24.70;71.10;;;;;;5009265;28;20561;-65
2023/05/29 12:33:28;;;;;;;5.23;2.03;;;24.80;72.80;;;;;;5034732;28;20502;-65
2023/05/29 12:35:55;;;;;;;1.57;1.57;;;24.90;71.90;;;;;;5026229;28;20428;-66
2023/05/29 12:38:22;;;;;;;2.17;1.90;;;25.00;71.30;;;;;;5010650;28;21054;-66
2023/05/29 12:40:49;;;;;;;3.53;1.53;;;25.00;71.50;;;;;;5010905;28;20458;-66
2023/05/29 12:43:16;;;;;;;5.23;1.67;;;25.10;71.70;;;;;;5012295;28;20415;-65
2023/05/29 12:45:42;;;;;;;2.60;1.60;;;25.10;72.00;;;;;;5005204;28;20446;-66
2023/05/29 12:48:09;;;;;;;3.87;2.37;;;25.20;71.20;;;;;;5030293;28;20431;-66
2023/05/29 12:50:37;;;;;;;6.97;3.03;;;25.20;70.20;;;;;;5033853;28;20507;-66
2023/05/29 12:53:08;;;;;;;1.70;1.60;;;25.00;68.70;;;;;;5031315;28;20558;-66
2023/05/29 12:55:39;;;;;;;1.80;1.70;;;24.90;69.50;;;;;;5010449;28;20419;-66
2023/05/29 12:58:06;;;;;;;2.90;2.33;;;24.90;70.30;;;;;;5031197;28;20415;-66
2023/05/29 13:00:34;;;;;;;2.77;2.27;;;24.90;70.30;;;;;;5019688;28;20461;-66
2023/05/29 13:03:01;;;;;;;3.90;2.37;;;24.80;69.70;;;;;;5026746;28;20777;-66
2023/05/29 13:05:27;;;;;;;3.77;2.40;;;24.60;69.40;;;;;;5001280;28;20436;-66
2023/05/29 13:07:53;;;;;;;2.40;1.83;;;24.50;69.30;;;;;;4998983;28;20786;-66
2023/05/29 13:10:19;;;;;;;5.33;2.13;;;24.60;70.80;;;;;;5020626;28;20999;-66
2023/05/29 13:12:45;;;;;;;3.70;2.10;;;24.80;70.40;;;;;;5025813;28;20193;-65
2023/05/29 13:15:13;;;;;;;6.03;2.40;;;24.90;70.40;;;;;;5006843;28;20485;-65
2023/05/29 13:17:43;;;;;;;2.33;1.37;;;25.10;70.30;;;;;;4998996;28;20431;-66
2023/05/29 13:20:12;;;;;;;2.27;2.07;;;25.20;70.90;;;;;;5017025;28;21026;-66
2023/05/29 13:22:39;;;;;;;2.40;1.57;;;25.30;68.00;;;;;;5005035;28;20435;-65
2023/05/29 13:25:07;;;;;;;2.83;1.87;;;25.20;69.10;;;;;;5003930;28;20428;-65
2023/05/29 13:27:42;;;;;;;1.77;1.53;;;25.10;70.10;;;;;;5007723;28;20822;-65
2023/05/29 13:30:09;;;;;;;2.17;1.83;;;25.20;68.40;;;;;;5014362;28;20878;-65
2023/05/29 13:32:34;;;;;;;2.80;2.30;;;25.30;69.90;;;;;;4998578;28;20431;-65
2023/05/29 13:35:00;;;;;;;2.03;1.93;;;25.30;68.70;;;;;;5010952;28;20953;-65
2023/05/29 13:37:27;;;;;;;1.73;1.63;;;25.20;68.70;;;;;;5027402;28;20180;-66
2023/05/29 13:39:53;;;;;;;1.83;1.77;;;25.00;67.50;;;;;;5021839;28;20176;-65
2023/05/29 13:42:20;;;;;;;1.47;1.37;;;24.80;68.90;;;;;;5026246;28;20450;-66
2023/05/29 13:44:49;;;;;;;1.83;1.40;;;24.60;69.90;;;;;;5007478;28;20424;-65
2023/05/29 13:47:15;;;;;;;1.83;1.57;;;24.80;69.20;;;;;;5015857;28;20415;-65
2023/05/29 13:49:41;;;;;;;4.43;2.40;;;24.80;68.70;;;;;;5019370;28;20487;-67
2023/05/29 13:52:07;;;;;;;1.67;1.57;;;24.80;68.60;;;;;;5010345;28;20211;-66
2023/05/29 13:54:35;;;;;;;4.53;2.50;;;24.70;68.40;;;;;;5023014;28;20779;-66
2023/05/29 13:57:05;;;;;;;2.43;1.97;;;24.70;68.70;;;;;;5000352;28;20173;-66
2023/05/29 13:59:32;;;;;;;3.27;1.67;;;24.80;68.40;;;;;;5025682;28;20427;-66
2023/05/29 14:01:58;;;;;;;1.60;1.50;;;24.90;70.40;;;;;;5022655;28;20438;-65
2023/05/29 14:04:23;;;;;;;2.03;1.90;;;25.00;69.60;;;;;;5007395;28;20930;-66
2023/05/29 14:06:49;;;;;;;5.30;1.63;;;25.10;69.10;;;;;;5005849;28;20241;-66
2023/05/29 14:09:15;;;;;;;1.70;1.67;;;25.20;71.00;;;;;;5017135;28;20181;-65
2023/05/29 14:11:41;;;;;;;7.43;2.20;;;25.40;69.10;;;;;;5021469;28;20213;-66
2023/05/29 14:14:06;;;;;;;3.17;2.30;;;25.60;68.40;;;;;;5006718;28;20187;-66
2023/05/29 14:16:33;;;;;;;2.00;1.73;;;25.70;69.10;;;;;;5001724;28;20280;-65
2023/05/29 14:18:59;;;;;;;2.40;2.10;;;25.80;68.70;;;;;;5022866;28;20310;-65
2023/05/29 14:21:25;;;;;;;2.87;1.60;;;25.90;67.40;;;;;;5027590;28;20435;-66
2023/05/29 14:23:50;;;;;;;2.40;2.07;;;25.90;66.70;;;;;;5021618;28;20426;-65
2023/05/29 14:26:16;;;;;;;1.80;1.57;;;25.80;68.50;;;;;;5034599;28;20360;-66
2023/05/29 14:28:42;;;;;;;1.50;1.40;;;25.90;68.00;;;;;;5021694;28;20291;-65
2023/05/29 14:31:07;;;;;;;3.03;2.27;;;26.00;68.30;;;;;;5026186;28;20220;-65
2023/05/29 14:33:33;;;;;;;1.77;1.67;;;26.00;67.70;;;;;;5025869;28;20548;-67
2023/05/29 14:35:58;;;;;;;2.60;2.40;;;25.60;67.20;;;;;;5018706;28;20169;-67
2023/05/29 14:38:25;;;;;;;1.93;1.73;;;25.40;68.60;;;;;;5021354;28;20168;-66
2023/05/29 14:40:51;;;;;;;5.43;2.30;;;25.30;69.30;;;;;;5023894;28;20677;-65
2023/05/29 14:43:17;;;;;;;3.20;2.30;;;25.20;68.70;;;;;;5021819;28;20422;-66
2023/05/29 14:45:42;;;;;;;8.23;2.43;;;24.90;69.00;;;;;;5003068;28;20661;-67
2023/05/29 14:48:08;;;;;;;2.60;1.70;;;24.70;70.30;;;;;;5004426;28;20229;-67
2023/05/29 14:50:33;;;;;;;2.73;1.70;;;24.70;70.90;;;;;;5009790;28;20266;-66
2023/05/29 14:52:59;;;;;;;1.27;1.17;;;24.80;68.80;;;;;;5003779;28;20203;-66
2023/05/29 14:55:24;;;;;;;5.80;1.70;;;25.00;68.70;;;;;;5022826;28;20665;-65
2023/05/29 14:57:50;;;;;;;5.17;1.77;;;25.10;69.20;;;;;;5011354;28;20176;-66
2023/05/29 15:00:16;;;;;;;2.30;2.03;;;25.20;68.40;;;;;;5019907;28;20185;-66
2023/05/29 15:02:41;;;;;;;2.47;2.00;;;25.10;70.20;;;;;;5008475;28;20184;-66
2023/05/29 15:05:07;;;;;;;2.57;1.87;;;25.10;69.80;;;;;;5002950;28;20431;-66
2023/05/29 15:07:36;;;;;;;3.27;1.87;;;25.10;70.80;;;;;;5013029;28;20605;-67
2023/05/29 15:10:02;;;;;;;1.90;1.70;;;25.00;70.00;;;;;;5005922;28;20199;-67
2023/05/29 15:12:29;;;;;;;2.37;1.80;;;24.90;70.60;;;;;;5023600;28;20490;-68
2023/05/29 15:14:54;;;;;;;5.00;2.13;;;24.90;69.90;;;;;;5016262;28;20821;-65
2023/05/29 15:17:20;;;;;;;2.50;1.80;;;24.80;69.60;;;;;;5026326;28;20934;-67
2023/05/29 15:19:46;;;;;;;1.97;1.80;;;24.80;70.80;;;;;;4998559;28;20233;-67
2023/05/29 15:22:11;;;;;;;2.20;1.80;;;25.00;70.80;;;;;;5019332;28;20741;-66
2023/05/29 15:24:37;;;;;;;5.10;2.33;;;25.10;70.90;;;;;;5014002;28;20192;-68
2023/05/29 15:27:03;;;;;;;3.63;1.83;;;25.20;70.00;;;;;;5008566;28;20189;-67
2023/05/29 15:29:34;;;;;;;3.70;2.37;;;25.00;70.20;;;;;;5033650;28;20572;-67
2023/05/29 15:32:00;;;;;;;2.43;2.27;;;24.60;69.70;;;;;;5005863;28;20197;-67
2023/05/29 15:34:25;;;;;;;1.50;1.40;;;24.30;70.40;;;;;;5005817;28;20442;-67
2023/05/29 15:36:51;;;;;;;4.57;2.47;;;24.00;71.70;;;;;;5007256;28;20184;-66
2023/05/29 15:39:16;;;;;;;1.97;1.33;;;23.90;72.80;;;;;;5030886;28;20180;-67
2023/05/29 15:41:42;;;;;;;4.30;1.43;;;24.10;72.00;;;;;;5012872;28;20200;-67
2023/05/29 15:44:08;;;;;;;1.83;1.63;;;24.30;72.50;;;;;;5033350;28;20230;-66
2023/05/29 15:46:33;;;;;;;2.33;2.10;;;24.50;71.90;;;;;;5009809;28;20180;-67
2023/05/29 15:48:59;;;;;;;3.90;1.83;;;24.60;71.00;;;;;;5014250;28;20164;-67
2023/05/29 15:51:24;;;;;;;2.40;2.20;;;24.70;71.30;;;;;;5032881;28;20220;-67
2023/05/29 15:53:50;;;;;;;11.33;2.57;;;24.80;70.80;;;;;;5010260;28;20185;-67
2023/05/29 15:56:15;;;;;;;1.47;1.13;;;24.80;70.90;;;;;;5027076;28;20200;-67
2023/05/29 15:58:41;;;;;;;8.40;2.70;;;24.80;70.60;;;;;;5003171;28;20677;-67
2023/05/29 16:01:07;;;;;;;1.23;1.13;;;24.80;70.80;;;;;;5013989;28;20196;-68
2023/05/29 16:03:32;;;;;;;1.50;1.40;;;24.90;70.60;;;;;;5023497;28;20184;-67
2023/05/29 16:05:58;;;;;;;2.47;1.80;;;24.80;70.10;;;;;;5031340;28;20188;-66
2023/05/29 16:08:26;;;;;;;2.37;1.97;;;24.70;68.90;;;;;;5005121;28;20180;-67
2023/05/29 16:10:52;;;;;;;1.50;1.40;;;24.60;70.90;;;;;;5025887;28;20770;-66
2023/05/29 16:13:19;;;;;;;5.20;2.90;;;24.70;70.60;;;;;;4998665;28;20412;-67
2023/05/29 16:15:46;;;;;;;9.53;2.67;;;24.70;69.50;;;;;;5010739;28;20176;-66
2023/05/29 16:18:11;;;;;;;4.00;1.90;;;24.60;69.70;;;;;;5010424;28;21199;-66
2023/05/29 16:20:37;;;;;;;2.50;2.17;;;24.50;71.20;;;;;;4999698;28;20976;-66
2023/05/29 16:23:03;;;;;;;2.00;1.80;;;24.60;71.10;;;;;;5005435;28;20331;-66
2023/05/29 16:25:29;;;;;;;5.13;3.40;;;24.70;70.30;;;;;;5006680;28;20176;-66
2023/05/29 16:27:55;;;;;;;1.47;1.43;;;24.70;70.60;;;;;;5029921;28;20207;-66
2023/05/29 16:30:23;;;;;;;2.73;2.33;;;24.60;70.40;;;;;;5004676;28;20557;-68
2023/05/29 16:32:48;;;;;;;4.40;2.43;;;24.50;71.30;;;;;;5027411;28;20270;-67
2023/05/29 16:35:14;;;;;;;1.63;1.47;;;24.40;71.00;;;;;;5022673;28;20424;-67
2023/05/29 16:37:39;;;;;;;1.70;1.60;;;24.20;71.40;;;;;;5008921;28;20636;-67
2023/05/29 16:40:05;;;;;;;6.87;3.90;;;24.10;72.10;;;;;;5027585;28;20188;-66
2023/05/29 16:42:31;;;;;;;5.63;2.33;;;24.00;71.90;;;;;;5008358;28;20191;-67
2023/05/29 16:44:56;;;;;;;3.67;2.57;;;23.90;71.90;;;;;;5034466;28;20432;-66
2023/05/29 16:47:22;;;;;;;2.60;2.43;;;23.90;72.80;;;;;;5035049;28;20188;-66
2023/05/29 16:49:49;;;;;;;2.03;1.70;;;23.80;72.30;;;;;;5007128;28;20212;-66